Ahsahka, Idaho
Current Conditions -  °F | °C
As of 7:56 AM on Friday 24 Oct 2014 (Local Time) from KLWS Reporting Station
Overcast Overcast  
Wind Chill: 50°   Ceiling: 7000
Heat Index: 50°   Visibility: 10mi
Dew Point: 47°   Wind: 5mph
Humidity: 89%   Direction: 50°NE
Pressure: 30.09"   Gusts: NA
Location:  46.51°N, 116.35°W
Report Text: KLWS 241456Z 05004KT 10SM OVC070 10/08 A3009 RMK AO2 SLP192 T01000083 53008
Loading
Personal Weather Stations






























Interactive Weather Map New forecast layout! Learn more

10-Day Weather Forecast

Advertisements
Track Severe Weather on mobile